sensor_id;sensor_type;location;lat;lon;timestamp;pressure;altitude;pressure_sealevel;temperature;humidity
80184;BME280;69682;52.138;5.440;2024-03-17T00:01:56;102432.59;;;4.70;85.55
80184;BME280;69682;52.138;5.440;2024-03-17T00:04:21;102425.50;;;4.72;85.77
80184;BME280;69682;52.138;5.440;2024-03-17T00:06:47;102421.09;;;4.73;85.72
80184;BME280;69682;52.138;5.440;2024-03-17T00:09:13;102416.81;;;4.67;85.88
80184;BME280;69682;52.138;5.440;2024-03-17T00:11:39;102413.38;;;4.65;86.39
80184;BME280;69682;52.138;5.440;2024-03-17T00:14:05;102416.81;;;4.67;86.90
80184;BME280;69682;52.138;5.440;2024-03-17T00:16:32;102420.38;;;4.68;86.31
80184;BME280;69682;52.138;5.440;2024-03-17T00:18:59;102413.31;;;4.68;86.92
80184;BME280;69682;52.138;5.440;2024-03-17T00:21:28;102412.53;;;4.65;86.39
80184;BME280;69682;52.138;5.440;2024-03-17T00:23:54;102407.19;;;4.66;86.38
80184;BME280;69682;52.138;5.440;2024-03-17T00:26:23;102395.69;;;4.69;86.25
80184;BME280;69682;52.138;5.440;2024-03-17T00:28:49;102400.03;;;4.70;86.54
80184;BME280;69682;52.138;5.440;2024-03-17T00:31:16;102400.88;;;4.72;85.87
80184;BME280;69682;52.138;5.440;2024-03-17T00:33:42;102405.31;;;4.71;85.77
80184;BME280;69682;52.138;5.440;2024-03-17T00:36:09;102397.38;;;4.71;85.67
80184;BME280;69682;52.138;5.440;2024-03-17T00:38:35;102402.69;;;4.70;85.62
80184;BME280;69682;52.138;5.440;2024-03-17T00:41:03;102395.63;;;4.70;86.32
80184;BME280;69682;52.138;5.440;2024-03-17T00:43:29;102400.03;;;4.70;85.77
80184;BME280;69682;52.138;5.440;2024-03-17T00:45:54;102387.75;;;4.69;85.83
80184;BME280;69682;52.138;5.440;2024-03-17T00:48:20;102381.63;;;4.68;86.16
80184;BME280;69682;52.138;5.440;2024-03-17T00:50:46;102386.06;;;4.66;85.87
80184;BME280;69682;52.138;5.440;2024-03-17T00:53:12;102378.22;;;4.63;86.03
80184;BME280;69682;52.138;5.440;2024-03-17T00:55:37;102379.94;;;4.64;86.21
80184;BME280;69682;52.138;5.440;2024-03-17T00:58:04;102384.44;;;4.62;86.32
80184;BME280;69682;52.138;5.440;2024-03-17T01:00:30;102378.25;;;4.62;86.69
80184;BME280;69682;52.138;5.440;2024-03-17T01:02:58;102380.88;;;4.63;86.62
80184;BME280;69682;52.138;5.440;2024-03-17T01:05:24;102380.88;;;4.63;86.82
80184;BME280;69682;52.138;5.440;2024-03-17T01:07:50;102380.00;;;4.63;86.68
80184;BME280;69682;52.138;5.440;2024-03-17T01:10:15;102383.69;;;4.57;86.84
80184;BME280;69682;52.138;5.440;2024-03-17T01:12:41;102382.75;;;4.58;86.83
80184;BME280;69682;52.138;5.440;2024-03-17T01:15:07;102384.69;;;4.53;86.85
80184;BME280;69682;52.138;5.440;2024-03-17T01:17:34;102379.34;;;4.54;86.86
80184;BME280;69682;52.138;5.440;2024-03-17T01:19:59;102371.34;;;4.58;86.98
80184;BME280;69682;52.138;5.440;2024-03-17T01:22:25;102367.75;;;4.60;87.09
80184;BME280;69682;52.138;5.440;2024-03-17T01:24:50;102368.69;;;4.59;87.44
80184;BME280;69682;52.138;5.440;2024-03-17T01:27:16;102365.97;;;4.61;87.49
80184;BME280;69682;52.138;5.440;2024-03-17T01:29:44;102365.06;;;4.62;87.32
80184;BME280;69682;52.138;5.440;2024-03-17T01:32:10;102360.63;;;4.64;87.52
80184;BME280;69682;52.138;5.440;2024-03-17T01:34:37;102353.56;;;4.64;87.34
80184;BME280;69682;52.138;5.440;2024-03-17T01:37:03;102352.69;;;4.64;87.11
80184;BME280;69682;52.138;5.440;2024-03-17T01:39:30;102359.78;;;4.62;87.48
80184;BME280;69682;52.138;5.440;2024-03-17T01:41:58;102350.97;;;4.63;87.50
80184;BME280;69682;52.138;5.440;2024-03-17T01:44:27;102339.56;;;4.62;87.71
80184;BME280;69682;52.138;5.440;2024-03-17T01:46:54;102333.34;;;4.63;87.41
80184;BME280;69682;52.138;5.440;2024-03-17T01:49:22;102333.34;;;4.65;86.91
80184;BME280;69682;52.138;5.440;2024-03-17T01:51:48;102330.63;;;4.66;87.79
80184;BME280;69682;52.138;5.440;2024-03-17T01:54:21;102323.66;;;4.64;87.26
80184;BME280;69682;52.138;5.440;2024-03-17T01:56:47;102319.25;;;4.64;87.66
80184;BME280;69682;52.138;5.440;2024-03-17T01:59:13;102328.19;;;4.59;87.41
80184;BME280;69682;52.138;5.440;2024-03-17T02:01:39;102332.75;;;4.53;87.53
80184;BME280;69682;52.138;5.440;2024-03-17T02:04:06;102325.69;;;4.54;87.71
80184;BME280;69682;52.138;5.440;2024-03-17T02:06:34;102324.69;;;4.58;87.34
80184;BME280;69682;52.138;5.440;2024-03-17T02:09:00;102321.25;;;4.56;87.98
80184;BME280;69682;52.138;5.440;2024-03-17T02:11:33;102322.97;;;4.57;88.04
80184;BME280;69682;52.138;5.440;2024-03-17T02:14:00;102324.66;;;4.60;87.71
80184;BME280;69682;52.138;5.440;2024-03-17T02:16:27;102320.16;;;4.63;87.89
80184;BME280;69682;52.138;5.440;2024-03-17T02:18:56;102323.63;;;4.65;87.77
80184;BME280;69682;52.138;5.440;2024-03-17T02:21:22;102320.06;;;4.66;88.14
80184;BME280;69682;52.138;5.440;2024-03-17T02:23:48;102321.75;;;4.69;88.10
80184;BME280;69682;52.138;5.440;2024-03-17T02:26:14;102311.22;;;4.69;88.19
80184;BME280;69682;52.138;5.440;2024-03-17T02:28:41;102315.56;;;4.70;88.07
80184;BME280;69682;52.138;5.440;2024-03-17T02:31:09;102313.78;;;4.70;88.20
80184;BME280;69682;52.138;5.440;2024-03-17T02:33:36;102314.69;;;4.71;88.54
80184;BME280;69682;52.138;5.440;2024-03-17T02:36:05;102312.91;;;4.71;88.13
80184;BME280;69682;52.138;5.440;2024-03-17T02:38:35;102305.78;;;4.73;88.87
80184;BME280;69682;52.138;5.440;2024-03-17T02:41:26;102304.88;;;4.74;88.64
80184;BME280;69682;52.138;5.440;2024-03-17T02:43:54;102293.38;;;4.77;88.90
80184;BME280;69682;52.138;5.440;2024-03-17T02:46:20;102298.66;;;4.77;88.99
80184;BME280;69682;52.138;5.440;2024-03-17T02:48:47;102293.47;;;4.74;89.20
80184;BME280;69682;52.138;5.440;2024-03-17T02:51:15;102295.19;;;4.75;89.00
80184;BME280;69682;52.138;5.440;2024-03-17T02:53:43;102296.09;;;4.74;89.41
80184;BME280;69682;52.138;5.440;2024-03-17T02:56:10;102294.25;;;4.76;89.40
80184;BME280;69682;52.138;5.440;2024-03-17T02:58:37;102296.06;;;4.75;89.14
80184;BME280;69682;52.138;5.440;2024-03-17T03:01:07;102296.88;;;4.77;89.24
80184;BME280;69682;52.138;5.440;2024-03-17T03:03:33;102295.00;;;4.81;89.26
80184;BME280;69682;52.138;5.440;2024-03-17T03:05:59;102289.59;;;4.86;89.47
80184;BME280;69682;52.138;5.440;2024-03-17T03:08:30;102284.25;;;4.89;89.46
80184;BME280;69682;52.138;5.440;2024-03-17T03:10:56;102280.69;;;4.90;89.51
80184;BME280;69682;52.138;5.440;2024-03-17T03:13:22;102285.88;;;4.93;89.34
80184;BME280;69682;52.138;5.440;2024-03-17T03:15:48;102287.56;;;4.95;89.46
80184;BME280;69682;52.138;5.440;2024-03-17T03:18:14;102286.59;;;4.98;89.64
80184;BME280;69682;52.138;5.440;2024-03-17T03:20:40;102286.53;;;4.99;89.21
80184;BME280;69682;52.138;5.440;2024-03-17T03:23:06;102284.72;;;5.01;89.72
80184;BME280;69682;52.138;5.440;2024-03-17T03:25:32;102276.78;;;5.03;89.72
80184;BME280;69682;52.138;5.440;2024-03-17T03:27:58;102278.44;;;5.06;89.81
80184;BME280;69682;52.138;5.440;2024-03-17T03:30:24;102281.06;;;5.06;89.23
80184;BME280;69682;52.138;5.440;2024-03-17T03:32:50;102280.97;;;5.09;89.58
80184;BME280;69682;52.138;5.440;2024-03-17T03:35:16;102285.47;;;5.07;89.09
80184;BME280;69682;52.138;5.440;2024-03-17T03:37:42;102284.50;;;5.09;89.17
80184;BME280;69682;52.138;5.440;2024-03-17T03:40:08;102284.44;;;5.11;88.93
80184;BME280;69682;52.138;5.440;2024-03-17T03:42:44;102279.16;;;5.11;88.63
80184;BME280;69682;52.138;5.440;2024-03-17T03:45:11;102273.75;;;5.15;88.97
80184;BME280;69682;52.138;5.440;2024-03-17T03:47:40;102271.03;;;5.18;88.95
80184;BME280;69682;52.138;5.440;2024-03-17T03:50:07;102269.25;;;5.19;89.39
80184;BME280;69682;52.138;5.440;2024-03-17T03:52:38;102277.09;;;5.20;88.46
80184;BME280;69682;52.138;5.440;2024-03-17T03:55:04;102263.00;;;5.21;88.77
80184;BME280;69682;52.138;5.440;2024-03-17T03:57:30;102256.78;;;5.22;89.18
80184;BME280;69682;52.138;5.440;2024-03-17T04:00:03;102249.69;;;5.24;89.04
80184;BME280;69682;52.138;5.440;2024-03-17T04:02:39;102249.69;;;5.24;89.27
80184;BME280;69682;52.138;5.440;2024-03-17T04:05:05;102251.41;;;5.26;89.02
80184;BME280;69682;52.138;5.440;2024-03-17T04:07:31;102239.94;;;5.27;88.92
80184;BME280;69682;52.138;5.440;2024-03-17T04:09:57;102233.75;;;5.28;89.41
80184;BME280;69682;52.138;5.440;2024-03-17T04:12:24;102228.38;;;5.29;90.04
80184;BME280;69682;52.138;5.440;2024-03-17T04:14:50;102220.47;;;5.29;89.73
80184;BME280;69682;52.138;5.440;2024-03-17T04:17:19;102224.94;;;5.27;89.42
80184;BME280;69682;52.138;5.440;2024-03-17T04:19:50;102228.47;;;5.28;89.31
80184;BME280;69682;52.138;5.440;2024-03-17T04:22:16;102228.56;;;5.24;89.57
80184;BME280;69682;52.138;5.440;2024-03-17T04:24:46;102217.06;;;5.26;89.28
80184;BME280;69682;52.138;5.440;2024-03-17T04:27:12;102227.59;;;5.27;89.06
80184;BME280;69682;52.138;5.440;2024-03-17T04:29:39;102230.34;;;5.24;88.96
80184;BME280;69682;52.138;5.440;2024-03-17T04:32:06;102227.63;;;5.26;88.75
80184;BME280;69682;52.138;5.440;2024-03-17T04:34:32;102215.28;;;5.26;89.05
80184;BME280;69682;52.138;5.440;2024-03-17T04:36:58;102203.00;;;5.25;89.01
80184;BME280;69682;52.138;5.440;2024-03-17T04:39:25;102197.69;;;5.25;89.53
80184;BME280;69682;52.138;5.440;2024-03-17T04:41:51;102198.56;;;5.26;89.66
80184;BME280;69682;52.138;5.440;2024-03-17T04:44:17;102201.09;;;5.29;89.22
80184;BME280;69682;52.138;5.440;2024-03-17T04:46:43;102201.97;;;5.29;89.24
80184;BME280;69682;52.138;5.440;2024-03-17T04:49:09;102203.75;;;5.29;89.36
80184;BME280;69682;52.138;5.440;2024-03-17T04:51:35;102201.16;;;5.27;89.47
80184;BME280;69682;52.138;5.440;2024-03-17T04:54:01;102201.16;;;5.27;89.26
80184;BME280;69682;52.138;5.440;2024-03-17T04:56:31;102202.06;;;5.26;89.47
80184;BME280;69682;52.138;5.440;2024-03-17T04:58:57;102213.47;;;5.28;89.38
80184;BME280;69682;52.138;5.440;2024-03-17T05:01:22;102209.88;;;5.29;89.67
80184;BME280;69682;52.138;5.440;2024-03-17T05:03:51;102215.16;;;5.31;89.32
80184;BME280;69682;52.138;5.440;2024-03-17T05:06:16;102214.13;;;5.35;89.35
80184;BME280;69682;52.138;5.440;2024-03-17T05:08:42;102214.94;;;5.37;89.53
80184;BME280;69682;52.138;5.440;2024-03-17T05:11:09;102210.50;;;5.37;89.13
80184;BME280;69682;52.138;5.440;2024-03-17T05:13:36;102214.94;;;5.37;88.73
80184;BME280;69682;52.138;5.440;2024-03-17T05:16:05;102206.16;;;5.36;89.15
80184;BME280;69682;52.138;5.440;2024-03-17T05:18:30;102202.59;;;5.37;88.77
80184;BME280;69682;52.138;5.440;2024-03-17T05:20:59;102205.19;;;5.39;89.19
80184;BME280;69682;52.138;5.440;2024-03-17T05:23:26;102206.91;;;5.40;89.05
80184;BME280;69682;52.138;5.440;2024-03-17T05:25:52;102209.53;;;5.41;88.71
80184;BME280;69682;52.138;5.440;2024-03-17T05:28:18;102204.22;;;5.41;88.55
80184;BME280;69682;52.138;5.440;2024-03-17T05:30:45;102206.00;;;5.41;88.47
80184;BME280;69682;52.138;5.440;2024-03-17T05:33:10;102201.59;;;5.41;88.24
80184;BME280;69682;52.138;5.440;2024-03-17T05:35:38;102204.22;;;5.41;88.29
80184;BME280;69682;52.138;5.440;2024-03-17T05:38:04;102208.59;;;5.42;88.35
80184;BME280;69682;52.138;5.440;2024-03-17T05:40:30;102208.53;;;5.44;88.53
80184;BME280;69682;52.138;5.440;2024-03-17T05:42:58;102204.94;;;5.46;88.88
80184;BME280;69682;52.138;5.440;2024-03-17T05:45:25;102196.09;;;5.47;88.75
80184;BME280;69682;52.138;5.440;2024-03-17T05:47:52;102195.28;;;5.45;89.63
80184;BME280;69682;52.138;5.440;2024-03-17T05:50:17;102197.91;;;5.45;89.10
80184;BME280;69682;52.138;5.440;2024-03-17T05:52:45;102193.47;;;5.47;88.74
80184;BME280;69682;52.138;5.440;2024-03-17T05:55:11;102191.59;;;5.50;88.90
80184;BME280;69682;52.138;5.440;2024-03-17T05:57:37;102196.91;;;5.50;89.22
80184;BME280;69682;52.138;5.440;2024-03-17T06:00:02;102199.53;;;5.50;89.38
80184;BME280;69682;52.138;5.440;2024-03-17T06:02:28;102208.28;;;5.52;88.88
80184;BME280;69682;52.138;5.440;2024-03-17T06:04:55;102202.19;;;5.50;88.67
80184;BME280;69682;52.138;5.440;2024-03-17T06:07:24;102202.16;;;5.51;88.37
80184;BME280;69682;52.138;5.440;2024-03-17T06:09:50;102208.25;;;5.53;88.93
80184;BME280;69682;52.138;5.440;2024-03-17T06:12:17;102206.41;;;5.55;88.34
80184;BME280;69682;52.138;5.440;2024-03-17T06:14:43;102200.16;;;5.58;88.92
80184;BME280;69682;52.138;5.440;2024-03-17T06:17:08;102201.88;;;5.59;88.60
80184;BME280;69682;52.138;5.440;2024-03-17T06:19:34;102205.34;;;5.61;88.58
80184;BME280;69682;52.138;5.440;2024-03-17T06:22:00;102203.63;;;5.60;87.88
80184;BME280;69682;52.138;5.440;2024-03-17T06:24:26;102200.00;;;5.62;88.38
80184;BME280;69682;52.138;5.440;2024-03-17T06:26:52;102195.47;;;5.66;88.73
80184;BME280;69682;52.138;5.440;2024-03-17T06:29:18;102195.47;;;5.66;88.55
80184;BME280;69682;52.138;5.440;2024-03-17T06:31:45;102197.09;;;5.70;88.37
80184;BME280;69682;52.138;5.440;2024-03-17T06:34:11;102198.78;;;5.73;88.28
80184;BME280;69682;52.138;5.440;2024-03-17T06:36:36;102196.94;;;5.75;88.51
80184;BME280;69682;52.138;5.440;2024-03-17T06:39:02;102200.34;;;5.78;88.33
80184;BME280;69682;52.138;5.440;2024-03-17T06:41:27;102190.50;;;5.82;88.50
80184;BME280;69682;52.138;5.440;2024-03-17T06:43:53;102186.88;;;5.86;88.35
80184;BME280;69682;52.138;5.440;2024-03-17T06:46:19;102184.97;;;5.89;87.97
80184;BME280;69682;52.138;5.440;2024-03-17T06:48:44;102187.50;;;5.92;88.63
80184;BME280;69682;52.138;5.440;2024-03-17T06:51:11;102183.94;;;5.95;88.19
80184;BME280;69682;52.138;5.440;2024-03-17T06:53:36;102190.03;;;5.97;87.81
80184;BME280;69682;52.138;5.440;2024-03-17T06:56:02;102188.13;;;6.01;87.62
80184;BME280;69682;52.138;5.440;2024-03-17T06:58:28;102197.69;;;6.05;86.66
80184;BME280;69682;52.138;5.440;2024-03-17T07:00:58;102190.50;;;6.08;86.82
80184;BME280;69682;52.138;5.440;2024-03-17T07:03:31;102193.91;;;6.12;86.29
80184;BME280;69682;52.138;5.440;2024-03-17T07:06:01;102196.47;;;6.15;86.47
80184;BME280;69682;52.138;5.440;2024-03-17T07:08:31;102197.19;;;6.19;85.98
80184;BME280;69682;52.138;5.440;2024-03-17T07:11:06;102185.66;;;6.21;86.65
80184;BME280;69682;52.138;5.440;2024-03-17T07:13:33;102186.44;;;6.23;86.20
80184;BME280;69682;52.138;5.440;2024-03-17T07:16:00;102194.25;;;6.26;86.57
80184;BME280;69682;52.138;5.440;2024-03-17T07:18:28;102203.84;;;6.30;85.70
80184;BME280;69682;52.138;5.440;2024-03-17T07:21:01;102201.00;;;6.35;86.20
80184;BME280;69682;52.138;5.440;2024-03-17T07:23:31;102198.19;;;6.40;86.74
80184;BME280;69682;52.138;5.440;2024-03-17T07:25:58;102201.47;;;6.46;86.05
80184;BME280;69682;52.138;5.440;2024-03-17T07:28:25;102197.75;;;6.52;85.76
80184;BME280;69682;52.138;5.440;2024-03-17T07:30:54;102201.94;;;6.57;85.51
80184;BME280;69682;52.138;5.440;2024-03-17T07:33:23;102206.97;;;6.65;85.47
80184;BME280;69682;52.138;5.440;2024-03-17T07:35:49;102206.72;;;6.71;84.89
80184;BME280;69682;52.138;5.440;2024-03-17T07:38:14;102202.16;;;6.75;85.25
80184;BME280;69682;52.138;5.440;2024-03-17T07:40:41;102195.69;;;6.82;84.68
80184;BME280;69682;52.138;5.440;2024-03-17T07:43:07;102204.28;;;6.89;85.53
80184;BME280;69682;52.138;5.440;2024-03-17T07:45:33;102193.50;;;6.93;84.44
80184;BME280;69682;52.138;5.440;2024-03-17T07:47:59;102199.41;;;7.00;84.14
80184;BME280;69682;52.138;5.440;2024-03-17T07:50:25;102199.19;;;7.06;84.81
80184;BME280;69682;52.138;5.440;2024-03-17T07:52:51;102194.38;;;7.16;84.49
80184;BME280;69682;52.138;5.440;2024-03-17T07:55:16;102187.13;;;7.21;84.38
80184;BME280;69682;52.138;5.440;2024-03-17T07:57:42;102184.13;;;7.28;83.48
80184;BME280;69682;52.138;5.440;2024-03-17T08:00:11;102181.09;;;7.38;84.08
80184;BME280;69682;52.138;5.440;2024-03-17T08:02:44;102176.34;;;7.46;83.58
80184;BME280;69682;52.138;5.440;2024-03-17T08:05:11;102176.09;;;7.52;83.83
80184;BME280;69682;52.138;5.440;2024-03-17T08:07:39;102176.69;;;7.59;84.14
80184;BME280;69682;52.138;5.440;2024-03-17T08:10:08;102184.47;;;7.63;83.15
80184;BME280;69682;52.138;5.440;2024-03-17T08:12:33;102189.63;;;7.66;83.18
80184;BME280;69682;52.138;5.440;2024-03-17T08:14:59;102192.88;;;7.73;83.32
80184;BME280;69682;52.138;5.440;2024-03-17T08:17:25;102186.53;;;7.77;82.88
80184;BME280;69682;52.138;5.440;2024-03-17T08:19:51;102187.19;;;7.82;83.36
80184;BME280;69682;52.138;5.440;2024-03-17T08:22:17;102178.31;;;7.83;83.36
80184;BME280;69682;52.138;5.440;2024-03-17T08:24:43;102179.13;;;7.85;82.83
80184;BME280;69682;52.138;5.440;2024-03-17T08:27:09;102183.53;;;7.85;82.94
80184;BME280;69682;52.138;5.440;2024-03-17T08:29:34;102183.47;;;7.86;82.75
80184;BME280;69682;52.138;5.440;2024-03-17T08:32:00;102177.19;;;7.89;82.82
80184;BME280;69682;52.138;5.440;2024-03-17T08:34:28;102174.53;;;7.89;83.01
80184;BME280;69682;52.138;5.440;2024-03-17T08:36:54;102178.03;;;7.89;83.25
80184;BME280;69682;52.138;5.440;2024-03-17T08:39:20;102176.19;;;7.91;83.29
80184;BME280;69682;52.138;5.440;2024-03-17T08:41:45;102169.00;;;7.93;83.11
80184;BME280;69682;52.138;5.440;2024-03-17T08:44:11;102173.31;;;7.96;82.38
80184;BME280;69682;52.138;5.440;2024-03-17T08:46:38;102169.69;;;7.99;82.66
80184;BME280;69682;52.138;5.440;2024-03-17T08:49:03;102165.19;;;8.01;83.17
80184;BME280;69682;52.138;5.440;2024-03-17T08:51:30;102164.19;;;8.03;82.68
80184;BME280;69682;52.138;5.440;2024-03-17T08:53:57;102162.25;;;8.07;82.27
80184;BME280;69682;52.138;5.440;2024-03-17T08:56:23;102161.03;;;8.14;82.86
80184;BME280;69682;52.138;5.440;2024-03-17T08:58:48;102160.88;;;8.17;82.81
80184;BME280;69682;52.138;5.440;2024-03-17T09:01:15;102162.41;;;8.23;82.42
80184;BME280;69682;52.138;5.440;2024-03-17T09:03:42;102161.28;;;8.28;82.47
80184;BME280;69682;52.138;5.440;2024-03-17T09:06:15;102158.47;;;8.31;82.24
80184;BME280;69682;52.138;5.440;2024-03-17T09:08:42;102159.03;;;8.38;81.64
80184;BME280;69682;52.138;5.440;2024-03-17T09:11:14;102159.75;;;8.43;82.17
80184;BME280;69682;52.138;5.440;2024-03-17T09:13:40;102153.28;;;8.49;81.85
80184;BME280;69682;52.138;5.440;2024-03-17T09:16:06;102156.59;;;8.54;81.13
80184;BME280;69682;52.138;5.440;2024-03-17T09:18:33;102154.78;;;8.54;80.77
80184;BME280;69682;52.138;5.440;2024-03-17T09:21:04;102163.34;;;8.61;80.66
80184;BME280;69682;52.138;5.440;2024-03-17T09:23:39;102155.16;;;8.66;80.58
80184;BME280;69682;52.138;5.440;2024-03-17T09:26:07;102151.50;;;8.68;80.48
80184;BME280;69682;52.138;5.440;2024-03-17T09:28:37;102146.03;;;8.71;80.05
80184;BME280;69682;52.138;5.440;2024-03-17T09:31:05;102157.16;;;8.79;80.92
80184;BME280;69682;52.138;5.440;2024-03-17T09:33:34;102155.22;;;8.83;80.23
80184;BME280;69682;52.138;5.440;2024-03-17T09:36:04;102155.06;;;8.86;80.62
80184;BME280;69682;52.138;5.440;2024-03-17T09:38:32;102155.06;;;8.86;79.86
80184;BME280;69682;52.138;5.440;2024-03-17T09:40:58;102156.72;;;8.89;80.28
80184;BME280;69682;52.138;5.440;2024-03-17T09:43:28;102151.31;;;8.90;80.37
80184;BME280;69682;52.138;5.440;2024-03-17T09:45:54;102151.13;;;8.95;80.12
80184;BME280;69682;52.138;5.440;2024-03-17T09:48:24;102147.31;;;9.00;79.97
80184;BME280;69682;52.138;5.440;2024-03-17T09:50:52;102150.50;;;9.07;80.31
80184;BME280;69682;52.138;5.440;2024-03-17T09:53:23;102151.06;;;9.14;79.39
80184;BME280;69682;52.138;5.440;2024-03-17T09:55:51;102148.97;;;9.20;80.05
80184;BME280;69682;52.138;5.440;2024-03-17T09:58:18;102148.53;;;9.29;80.05
80184;BME280;69682;52.138;5.440;2024-03-17T10:00:45;102161.44;;;9.37;79.59
80184;BME280;69682;52.138;5.440;2024-03-17T10:03:12;102149.63;;;9.43;79.49
80184;BME280;69682;52.138;5.440;2024-03-17T10:05:38;102140.53;;;9.47;78.93
80184;BME280;69682;52.138;5.440;2024-03-17T10:08:04;102132.13;;;9.56;78.94
80184;BME280;69682;52.138;5.440;2024-03-17T10:10:30;102137.03;;;9.64;78.73
80184;BME280;69682;52.138;5.440;2024-03-17T10:12:55;102130.38;;;9.72;78.71
80184;BME280;69682;52.138;5.440;2024-03-17T10:15:21;102132.53;;;9.82;77.89
80184;BME280;69682;52.138;5.440;2024-03-17T10:17:49;102130.44;;;9.88;77.87
80184;BME280;69682;52.138;5.440;2024-03-17T10:20:21;102124.53;;;9.99;77.89
80184;BME280;69682;52.138;5.440;2024-03-17T10:22:59;102122.66;;;10.01;77.62
80184;BME280;69682;52.138;5.440;2024-03-17T10:25:27;102127.72;;;10.06;77.98
80184;BME280;69682;52.138;5.440;2024-03-17T10:27:57;102129.13;;;10.13;78.24
80184;BME280;69682;52.138;5.440;2024-03-17T10:30:23;102123.38;;;10.20;77.75
80184;BME280;69682;52.138;5.440;2024-03-17T10:32:52;102123.84;;;10.29;77.73
80184;BME280;69682;52.138;5.440;2024-03-17T10:35:36;102118.81;;;10.40;77.04
80184;BME280;69682;52.138;5.440;2024-03-17T10:38:07;102117.09;;;10.55;77.30
80184;BME280;69682;52.138;5.440;2024-03-17T10:40:34;102108.84;;;10.75;77.67
80184;BME280;69682;52.138;5.440;2024-03-17T10:43:02;102112.38;;;10.91;77.14
80184;BME280;69682;52.138;5.440;2024-03-17T10:45:28;102115.25;;;11.03;77.02
80184;BME280;69682;52.138;5.440;2024-03-17T10:48:02;102107.84;;;11.08;76.07
80184;BME280;69682;52.138;5.440;2024-03-17T10:50:30;102100.53;;;11.11;75.96
80184;BME280;69682;52.138;5.440;2024-03-17T10:53:02;102100.88;;;11.21;76.37
80184;BME280;69682;52.138;5.440;2024-03-17T10:55:31;102092.13;;;11.33;75.22
80184;BME280;69682;52.138;5.440;2024-03-17T10:57:59;102097.97;;;11.40;75.88
80184;BME280;69682;52.138;5.440;2024-03-17T11:00:26;102090.94;;;11.53;75.21
80184;BME280;69682;52.138;5.440;2024-03-17T11:02:55;102089.16;;;11.68;74.65
80184;BME280;69682;52.138;5.440;2024-03-17T11:07:52;102086.06;;;11.90;74.53
80184;BME280;69682;52.138;5.440;2024-03-17T11:10:28;102086.06;;;12.04;73.31
80184;BME280;69682;52.138;5.440;2024-03-17T11:12:55;102080.97;;;12.14;73.11
80184;BME280;69682;52.138;5.440;2024-03-17T11:20:41;102083.00;;;12.25;72.60
80184;BME280;69682;52.138;5.440;2024-03-17T11:23:07;102075.81;;;12.25;72.78
80184;BME280;69682;52.138;5.440;2024-03-17T11:28:01;102082.78;;;12.28;72.40
80184;BME280;69682;52.138;5.440;2024-03-17T11:36:36;102067.34;;;12.19;72.95
80184;BME280;69682;52.138;5.440;2024-03-17T11:39:09;102068.59;;;12.13;71.95
80184;BME280;69682;52.138;5.440;2024-03-17T11:41:49;102069.25;;;12.02;72.55
80184;BME280;69682;52.138;5.440;2024-03-17T11:49:31;102061.63;;;11.96;72.80
80184;BME280;69682;52.138;5.440;2024-03-17T11:51:58;102065.25;;;11.95;72.40
80184;BME280;69682;52.138;5.440;2024-03-17T11:54:26;102066.59;;;11.88;71.86
80184;BME280;69682;52.138;5.440;2024-03-17T11:56:53;102068.66;;;11.83;73.32
80184;BME280;69682;52.138;5.440;2024-03-17T11:59:19;102070.84;;;11.76;72.42
80184;BME280;69682;52.138;5.440;2024-03-17T12:01:47;102071.50;;;11.66;71.83
80184;BME280;69682;52.138;5.440;2024-03-17T12:04:14;102071.88;;;11.59;71.97
80184;BME280;69682;52.138;5.440;2024-03-17T12:06:44;102069.41;;;11.56;72.41
80184;BME280;69682;52.138;5.440;2024-03-17T12:09:24;102064.44;;;11.50;72.47
80184;BME280;69682;52.138;5.440;2024-03-17T12:12:01;102061.06;;;11.47;72.13
80184;BME280;69682;52.138;5.440;2024-03-17T12:14:27;102064.63;;;11.47;72.64
80184;BME280;69682;52.138;5.440;2024-03-17T12:19:23;102062.63;;;11.51;73.48
80184;BME280;69682;52.138;5.440;2024-03-17T12:21:53;102057.09;;;11.54;73.23
80184;BME280;69682;52.138;5.440;2024-03-17T12:24:24;102051.47;;;11.58;73.27
80184;BME280;69682;52.138;5.440;2024-03-17T12:26:50;102045.75;;;11.65;73.68
80184;BME280;69682;52.138;5.440;2024-03-17T12:29:27;102045.28;;;11.72;73.49
80184;BME280;69682;52.138;5.440;2024-03-17T12:31:58;102043.09;;;11.79;73.57
80184;BME280;69682;52.138;5.440;2024-03-17T12:34:26;102036.03;;;11.78;73.74
80184;BME280;69682;52.138;5.440;2024-03-17T12:36:53;102038.63;;;11.79;73.11
80184;BME280;69682;52.138;5.440;2024-03-17T12:42:24;102030.72;;;11.78;73.90
80184;BME280;69682;52.138;5.440;2024-03-17T12:45:00;102030.97;;;11.73;73.31
80184;BME280;69682;52.138;5.440;2024-03-17T12:47:32;102023.94;;;11.72;73.23
80184;BME280;69682;52.138;5.440;2024-03-17T12:50:01;102015.72;;;11.75;73.70
80184;BME280;69682;52.138;5.440;2024-03-17T12:52:34;102008.78;;;11.73;73.35
80184;BME280;69682;52.138;5.440;2024-03-17T12:55:05;102005.56;;;11.68;73.25
80184;BME280;69682;52.138;5.440;2024-03-17T12:57:51;102008.09;;;11.69;73.51
80184;BME280;69682;52.138;5.440;2024-03-17T13:00:36;102000.94;;;11.70;73.00
80184;BME280;69682;52.138;5.440;2024-03-17T13:03:05;102002.78;;;11.69;72.96
80184;BME280;69682;52.138;5.440;2024-03-17T13:05:32;101999.25;;;11.69;72.94
80184;BME280;69682;52.138;5.440;2024-03-17T13:07:58;101993.72;;;11.72;73.28
80184;BME280;69682;52.138;5.440;2024-03-17T13:10:25;101995.53;;;11.71;73.45
80184;BME280;69682;52.138;5.440;2024-03-17T13:13:01;101992.00;;;11.71;73.44
80184;BME280;69682;52.138;5.440;2024-03-17T13:15:28;101993.06;;;11.68;72.85
80184;BME280;69682;52.138;5.440;2024-03-17T13:17:57;101987.59;;;11.70;73.51
80184;BME280;69682;52.138;5.440;2024-03-17T13:20:24;101995.34;;;11.74;73.02
80184;BME280;69682;52.138;5.440;2024-03-17T13:22:50;101986.28;;;11.77;73.22
80184;BME280;69682;52.138;5.440;2024-03-17T13:25:19;101983.63;;;11.77;73.36
80184;BME280;69682;52.138;5.440;2024-03-17T13:27:48;101976.16;;;11.82;73.82